Terminal Aerodrome Forecast
Issued by NWS Boston, MA

Home | Current Version | Previous Version | Text Only | Print | Product List | Glossary On
Versions: 1 2 3 4 5 6 7 8 9 10 11 12 13 14 15 16 17 18 19 20 21 22 23 24 25 26 27 28 29 30 31 32 33 34 35 36 37 38 39 40 41 42
000
FTUS41 KBOX 261729
TAFPVD
TAF
KPVD 261729Z 2618/2718 20007KT 3SM -SHRA BKN008
     FM262100 20010KT 3SM -SHRA OVC008 WS020/22055KT
     FM270000 21012G21KT 3SM -SHRA BR BKN008 WS020/22055KT
     FM270300 27008KT 3SM -SHRA BR OVC003 WS020/24040KT
     FM270600 34004KT 3SM -SHRA OVC008
     FM271200 35008KT 3SM -SHRA OVC010=

USA.gov is the U.S. government's official web portal to all federal, state and local government web resources and services.